Time;durP1;ratioP1;P1;durP2;ratioP2;P2;SDS_P1;SDS_P2;PMS_P1;PMS_P2;Temp;Humidity;BMP_temperature;BMP_pressure;BME280_temperature;BME280_humidity;BME280_pressure;Samples;Min_cycle;Max_cycle;Signal;HPM_P1;HPM_P2
2021/05/06 00:03:55;;;;;;;1.85;1.40;;;;;;;10.88;81.73;96902.75;1719953;80;21091;-75
2021/05/06 00:08:53;;;;;;;2.35;1.67;;;;;;;10.90;82.17;96920.75;1765247;80;21171;-76
2021/05/06 00:30:17;;;;;;;2.17;1.27;;;;;;;10.56;82.94;96950.55;1750321;81;21119;-76
2021/05/06 00:32:39;;;;;;;1.10;0.95;;;;;;;10.58;83.66;96961.58;1769716;81;21134;-76
2021/05/06 00:35:08;;;;;;;1.20;1.10;;;;;;;10.57;83.33;96975.27;1749155;82;21143;-76
2021/05/06 00:37:45;;;;;;;1.10;1.00;;;;;;;10.59;83.28;96980.51;1749183;82;21126;-76
2021/05/06 00:40:08;;;;;;;2.52;1.27;;;;;;;10.58;83.68;96980.95;1748112;82;21473;-76
2021/05/06 01:04:23;;;;;;;1.32;0.80;;;;;;;10.37;82.14;97002.17;1749119;82;21476;-76
2021/05/06 01:12:37;;;;;;;2.37;1.00;;;;;;;10.23;79.99;97015.16;1790686;78;23012;-76
2021/05/06 01:15:07;;;;;;;3.85;0.90;;;;;;;10.09;80.58;97026.37;1764082;81;21186;-76
2021/05/06 01:17:53;;;;;;;1.10;0.80;;;;;;;10.02;80.32;97036.36;1759685;81;21335;-76
2021/05/06 01:20:21;;;;;;;3.08;1.00;;;;;;;9.89;80.27;97050.58;1747155;80;21291;-76
2021/05/06 01:22:50;;;;;;;1.70;1.00;;;;;;;9.82;80.59;97061.01;1764605;79;21179;-76
2021/05/06 01:25:17;;;;;;;1.42;1.07;;;;;;;9.73;79.75;97069.75;1775850;80;21204;-76
2021/05/06 01:27:57;;;;;;;2.45;1.00;;;;;;;9.66;79.54;97076.64;1778905;80;21523;-75
2021/05/06 01:35:54;;;;;;;0.95;0.85;;;;;;;9.51;80.86;97089.59;1813047;79;22823;-74
2021/05/06 01:39:34;;;;;;;1.55;0.98;;;;;;;9.40;81.89;97091.78;1784279;80;21260;-74
2021/05/06 01:41:25;;;;;;;2.17;0.90;;;;;;;9.35;81.73;97091.98;1759078;80;21134;-75
2021/05/06 01:49:23;;;;;;;1.12;1.00;;;;;;;9.27;80.48;97096.70;1753819;82;21483;-75
2021/05/06 01:59:49;;;;;;;1.25;0.80;;;;;;;9.15;79.59;97079.52;1707989;84;21154;-76
2021/05/06 02:02:14;;;;;;;1.75;1.00;;;;;;;9.10;78.85;97081.87;1707625;84;21146;-77
2021/05/06 02:04:41;;;;;;;2.87;1.07;;;;;;;9.03;79.01;97088.78;1708133;84;21161;-74
2021/05/06 02:07:09;;;;;;;1.07;0.80;;;;;;;8.99;78.54;97109.19;1707879;84;21506;-75
2021/05/06 02:09:44;;;;;;;3.37;0.93;;;;;;;8.92;79.56;97126.17;1719800;83;21496;-74
2021/05/06 02:12:13;;;;;;;1.30;1.00;;;;;;;8.88;79.19;97137.32;1720497;83;21241;-75
2021/05/06 02:17:21;;;;;;;1.10;0.85;;;;;;;8.81;79.20;97147.73;1766362;79;23323;-74
2021/05/06 02:19:51;;;;;;;1.22;1.00;;;;;;;8.75;78.22;97159.84;1725113;82;21135;-73
2021/05/06 02:22:20;;;;;;;3.52;1.10;;;;;;;8.71;78.30;97153.34;1697004;83;21138;-74
2021/05/06 02:24:48;;;;;;;3.50;1.02;;;;;;;8.69;78.08;97155.63;1724969;83;21205;-74
2021/05/06 02:27:16;;;;;;;1.50;0.90;;;;;;;8.65;78.21;97160.17;1696001;83;21139;-74
2021/05/06 02:29:48;;;;;;;1.10;0.90;;;;;;;8.64;78.57;97164.18;1724693;83;21524;-74
2021/05/06 02:32:16;;;;;;;1.15;0.90;;;;;;;8.60;78.09;97170.03;1724826;83;21132;-74
2021/05/06 02:34:45;;;;;;;1.62;0.90;;;;;;;8.57;78.01;97172.77;1728862;82;21509;-74
2021/05/06 02:37:15;;;;;;;1.20;1.02;;;;;;;8.52;77.97;97161.03;1743602;82;21166;-74
2021/05/06 02:39:45;;;;;;;2.10;1.20;;;;;;;8.49;78.16;97149.69;1724848;82;21122;-73
2021/05/06 02:42:13;;;;;;;2.52;0.80;;;;;;;8.49;78.45;97140.44;1724649;83;21163;-73
2021/05/06 02:44:41;;;;;;;3.40;0.82;;;;;;;8.53;78.39;97142.97;1724731;82;21144;-73
2021/05/06 02:47:09;;;;;;;1.80;0.90;;;;;;;8.55;78.02;97153.45;1724711;82;21135;-73
2021/05/06 02:49:42;;;;;;;1.37;0.70;;;;;;;8.55;77.29;97162.70;1724608;83;21301;-73
2021/05/06 02:52:13;;;;;;;1.30;0.70;;;;;;;8.57;77.46;97175.41;1725225;82;21197;-74
2021/05/06 02:54:40;;;;;;;1.42;0.85;;;;;;;8.62;77.26;97174.80;1753730;82;21296;-74
2021/05/06 03:04:53;;;;;;;0.98;0.70;;;;;;;8.67;76.57;97197.07;1736935;82;21123;-73
2021/05/06 03:07:24;;;;;;;2.77;1.00;;;;;;;8.68;76.39;97206.75;1754668;82;21636;-74
2021/05/06 03:21:10;;;;;;;1.90;0.90;;;;;;;8.50;76.17;97226.67;1754405;81;21587;-74
2021/05/06 03:23:25;;;;;;;1.55;1.10;;;;;;;8.45;76.08;97231.67;1751024;82;21278;-74
2021/05/06 03:25:55;;;;;;;0.90;0.80;;;;;;;8.43;76.37;97242.72;1749276;82;21313;-74
2021/05/06 03:28:26;;;;;;;1.40;0.90;;;;;;;8.42;76.12;97238.81;1724654;82;21473;-74
2021/05/06 03:42:06;;;;;;;2.10;1.02;;;;;;;8.43;76.70;97238.77;1724130;83;21127;-74
2021/05/06 04:22:25;;;;;;;1.70;0.88;;;;;;;9.05;74.88;97291.33;1752431;82;21126;-74
2021/05/06 04:27:22;;;;;;;2.70;1.10;;;;;;;9.28;74.90;97278.20;1769459;80;21110;-74
2021/05/06 04:37:51;;;;;;;0.90;0.78;;;;;;;9.33;72.97;97307.55;1706890;84;21124;-73
2021/05/06 04:53:43;;;;;;;3.47;1.10;;;;;;;9.67;71.77;97325.29;1794263;80;21123;-74
2021/05/06 05:09:37;;;;;;;2.35;1.00;;;;;;;9.90;69.87;97315.64;1763101;80;21106;-75
2021/05/06 05:15:02;;;;;;;1.02;0.82;;;;;;;9.91;69.35;97320.00;1820895;79;22957;-74
2021/05/06 05:20:18;;;;;;;1.40;1.00;;;;;;;9.83;68.94;97339.27;1763071;81;21116;-74
2021/05/06 05:27:59;;;;;;;1.25;0.90;;;;;;;9.96;68.86;97373.63;1746401;80;21141;-74
2021/05/06 05:30:29;;;;;;;2.27;1.17;;;;;;;10.03;68.61;97387.51;1764315;80;21685;-74
2021/05/06 05:32:58;;;;;;;4.78;1.10;;;;;;;10.10;68.68;97389.47;1763631;80;21168;-73
2021/05/06 05:38:17;;;;;;;1.60;1.07;;;;;;;10.17;68.47;97397.58;1782084;78;21150;-75
2021/05/06 05:40:47;;;;;;;1.07;0.70;;;;;;;10.24;68.17;97404.38;1788152;78;21099;-73
2021/05/06 05:43:22;;;;;;;2.22;1.27;;;;;;;10.29;67.40;97408.16;1809555;79;21214;-73
2021/05/06 05:49:18;;;;;;;1.92;1.05;;;;;;;10.34;67.35;97411.98;1798363;79;21233;-74
2021/05/06 05:56:08;;;;;;;2.80;1.05;;;;;;;10.50;66.60;97416.27;1739024;81;21137;-74
2021/05/06 05:58:36;;;;;;;1.50;0.95;;;;;;;10.54;66.91;97414.75;1733467;83;21154;-72
2021/05/06 06:01:03;;;;;;;4.78;1.07;;;;;;;10.60;66.35;97412.34;1725614;83;21286;-72
2021/05/06 06:03:31;;;;;;;1.72;0.98;;;;;;;10.65;66.15;97420.09;1732349;81;21246;-74
2021/05/06 06:06:00;;;;;;;2.00;0.80;;;;;;;10.61;64.86;97423.33;1731780;81;21117;-73
2021/05/06 06:08:30;;;;;;;1.37;0.90;;;;;;;10.64;65.76;97423.67;1710550;81;21100;-74
2021/05/06 06:10:57;;;;;;;1.35;0.90;;;;;;;10.66;64.79;97417.84;1711769;81;21174;-73
2021/05/06 06:13:26;;;;;;;1.22;0.95;;;;;;;10.68;64.34;97423.95;1700732;82;21199;-74
2021/05/06 06:16:02;;;;;;;1.55;0.90;;;;;;;10.74;64.44;97425.03;1704654;82;21545;-74
2021/05/06 06:18:44;;;;;;;1.85;1.00;;;;;;;10.71;63.20;97434.90;1705720;83;21092;-74
2021/05/06 06:21:18;;;;;;;2.62;1.20;;;;;;;10.64;63.13;97423.22;1707452;83;21131;-74
2021/05/06 06:23:40;;;;;;;1.15;0.78;;;;;;;10.65;63.60;97428.04;1691310;84;21132;-74
2021/05/06 06:26:09;;;;;;;2.27;1.65;;;;;;;10.69;62.16;97424.35;1703983;83;21123;-74
2021/05/06 06:28:47;;;;;;;1.10;0.90;;;;;;;10.66;62.13;97432.41;1743758;82;21122;-75
2021/05/06 06:31:19;;;;;;;1.67;0.98;;;;;;;10.61;61.24;97436.58;1773407;80;21087;-75
2021/05/06 06:33:45;;;;;;;2.45;0.98;;;;;;;10.55;61.42;97438.99;1781308;80;21122;-75
2021/05/06 06:36:13;;;;;;;8.03;1.70;;;;;;;10.52;61.83;97438.25;1777919;79;21108;-75
2021/05/06 06:38:41;;;;;;;1.62;1.00;;;;;;;10.44;62.09;97433.25;1766766;80;21121;-75
2021/05/06 06:41:10;;;;;;;2.35;0.82;;;;;;;10.54;61.87;97433.30;1759956;80;21164;-75
2021/05/06 06:43:39;;;;;;;1.98;1.00;;;;;;;10.53;61.49;97436.88;1771716;79;21169;-75
2021/05/06 06:46:07;;;;;;;2.22;0.90;;;;;;;10.64;61.06;97421.02;1763455;79;21490;-75
2021/05/06 06:48:35;;;;;;;2.35;0.80;;;;;;;10.80;58.53;97438.52;1742849;81;21183;-75
2021/05/06 06:51:03;;;;;;;1.12;0.70;;;;;;;10.91;57.00;97415.08;1775664;80;21080;-75
2021/05/06 06:53:30;;;;;;;2.90;0.82;;;;;;;10.94;56.52;97406.14;1774626;80;21107;-86
2021/05/06 06:55:58;;;;;;;2.60;0.85;;;;;;;11.05;55.46;97409.69;1778437;80;21449;-81
2021/05/06 06:58:27;;;;;;;3.02;0.93;;;;;;;11.14;53.95;97394.73;1783112;80;21129;-85
2021/05/06 07:00:55;;;;;;;2.37;1.00;;;;;;;11.25;54.33;97394.25;1769071;80;21163;-83
2021/05/06 07:03:23;;;;;;;2.08;1.00;;;;;;;11.26;51.88;97393.80;1749609;80;21118;-82
2021/05/06 07:05:50;;;;;;;1.50;0.93;;;;;;;11.27;51.50;97403.48;1783664;80;21490;-83
2021/05/06 07:08:27;;;;;;;1.62;0.70;;;;;;;11.32;51.30;97409.00;1767381;80;21114;-83
2021/05/06 07:10:56;;;;;;;1.40;0.78;;;;;;;11.29;50.16;97422.87;1776347;80;21151;-86
2021/05/06 07:13:26;;;;;;;1.57;0.88;;;;;;;11.30;50.63;97422.78;1739932;81;21539;-84
2021/05/06 07:16:01;;;;;;;2.65;0.95;;;;;;;11.27;51.78;97418.95;1761723;81;21326;-81
2021/05/06 07:18:35;;;;;;;2.85;0.93;;;;;;;11.17;52.84;97422.42;1779749;81;21268;-83
2021/05/06 07:21:04;;;;;;;2.25;1.00;;;;;;;11.12;53.34;97417.78;1765373;81;21133;-82
2021/05/06 07:23:34;;;;;;;1.45;1.05;;;;;;;11.01;52.78;97436.77;1758997;80;21426;-81
2021/05/06 07:26:04;;;;;;;1.50;0.90;;;;;;;11.05;53.93;97442.84;1759332;81;21142;-82
2021/05/06 07:28:42;;;;;;;1.35;0.90;;;;;;;11.07;53.47;97447.15;1767009;80;21220;-82
2021/05/06 07:31:12;;;;;;;1.12;0.82;;;;;;;11.21;52.51;97443.05;1758380;81;21129;-88
2021/05/06 07:33:43;;;;;;;2.80;0.98;;;;;;;11.35;52.48;97436.71;1754472;80;21115;-84
2021/05/06 07:36:18;;;;;;;1.50;1.00;;;;;;;11.51;52.46;97423.27;1751392;81;21111;-81
2021/05/06 07:38:48;;;;;;;0.90;0.50;;;;;;;11.71;49.62;97434.38;1752062;81;21075;-85
2021/05/06 07:41:24;;;;;;;1.35;0.80;;;;;;;11.87;47.28;97427.91;1750301;82;21122;-85
2021/05/06 07:43:54;;;;;;;2.35;0.80;;;;;;;11.98;46.88;97428.31;1770213;80;21534;-82
2021/05/06 07:46:23;;;;;;;2.98;1.00;;;;;;;12.06;47.92;97427.13;1757169;81;21111;-83
2021/05/06 07:48:54;;;;;;;2.02;0.65;;;;;;;12.17;48.94;97440.81;1763809;80;21126;-82
2021/05/06 07:51:24;;;;;;;1.57;0.90;;;;;;;12.22;46.70;97443.24;1769948;81;21312;-83
2021/05/06 07:53:55;;;;;;;4.22;0.80;;;;;;;12.29;47.24;97446.00;1740082;81;21110;-87
2021/05/06 07:56:24;;;;;;;2.27;0.80;;;;;;;12.26;43.92;97440.84;1756963;80;21115;-83
2021/05/06 07:58:52;;;;;;;2.30;0.90;;;;;;;12.28;45.92;97442.50;1760067;81;21162;-82
2021/05/06 08:01:19;;;;;;;2.45;0.80;;;;;;;12.33;45.67;97438.78;1762153;80;21110;-78
2021/05/06 08:03:48;;;;;;;2.80;1.00;;;;;;;12.38;44.46;97452.72;1750537;80;21144;-82
2021/05/06 08:06:20;;;;;;;2.60;0.90;;;;;;;12.43;45.85;97445.39;1735875;81;21516;-82
2021/05/06 08:08:52;;;;;;;1.70;0.80;;;;;;;12.47;44.89;97450.97;1758928;81;21080;-83
2021/05/06 08:11:22;;;;;;;2.42;0.98;;;;;;;12.49;45.26;97449.55;1762569;80;21477;-82
2021/05/06 08:13:51;;;;;;;1.95;1.40;;;;;;;12.51;46.50;97445.88;1789068;79;21151;-81
2021/05/06 08:16:19;;;;;;;1.20;1.00;;;;;;;12.54;46.75;97448.86;1793194;79;21134;-83
2021/05/06 08:18:46;;;;;;;1.22;0.70;;;;;;;12.53;47.30;97454.66;1793711;79;21162;-82
2021/05/06 08:21:14;;;;;;;1.30;0.80;;;;;;;12.53;47.54;97452.46;1780920;79;21110;-86
2021/05/06 08:23:43;;;;;;;1.60;0.80;;;;;;;12.56;46.25;97446.14;1796999;79;21142;-93
2021/05/06 08:26:11;;;;;;;2.77;0.70;;;;;;;12.65;46.58;97455.89;1782026;79;21130;-87
2021/05/06 08:28:40;;;;;;;1.70;0.80;;;;;;;12.79;45.83;97451.24;1777559;79;21148;-90
2021/05/06 08:31:08;;;;;;;0.93;0.60;;;;;;;12.94;46.22;97439.48;1798169;79;21115;-87
2021/05/06 08:33:35;;;;;;;0.82;0.70;;;;;;;13.03;46.80;97436.83;1780646;79;21151;-88
2021/05/06 08:36:03;;;;;;;1.12;0.70;;;;;;;13.11;43.86;97445.31;1799782;79;21154;-84
2021/05/06 08:38:31;;;;;;;1.62;0.80;;;;;;;13.23;45.65;97446.97;1793026;79;21107;-88
2021/05/06 08:41:00;;;;;;;1.40;0.80;;;;;;;13.37;45.68;97442.31;1793430;79;21122;-85
2021/05/06 08:43:32;;;;;;;2.72;0.80;;;;;;;13.46;42.18;97430.72;1724808;82;21135;-81
2021/05/06 08:45:58;;;;;;;1.00;0.70;;;;;;;13.59;44.14;97432.80;1728012;82;21132;-80
2021/05/06 08:48:29;;;;;;;0.90;0.70;;;;;;;13.70;42.80;97436.26;1723616;83;21207;-83
2021/05/06 08:50:59;;;;;;;3.08;0.85;;;;;;;13.79;44.56;97441.57;1739255;81;21149;-84
2021/05/06 08:53:26;;;;;;;2.25;0.82;;;;;;;13.98;43.77;97444.12;1720109;82;21114;-84
2021/05/06 08:55:56;;;;;;;1.00;0.90;;;;;;;14.21;43.44;97444.72;1723283;83;21180;-88
2021/05/06 08:58:24;;;;;;;1.30;0.93;;;;;;;14.38;43.83;97442.48;1716554;82;21183;-89
2021/05/06 09:00:51;;;;;;;2.27;1.60;;;;;;;14.48;43.17;97439.70;1710209;83;21143;-86
2021/05/06 09:03:18;;;;;;;3.55;0.93;;;;;;;14.43;41.81;97450.22;1758404;82;21571;-87
2021/05/06 09:06:17;;;;;;;2.50;1.05;;;;;;;14.32;41.20;97454.33;1721434;82;21114;-87
2021/05/06 09:08:53;;;;;;;2.62;0.88;;;;;;;14.25;37.82;97451.62;1725027;82;21221;-87
2021/05/06 09:11:37;;;;;;;2.95;1.20;;;;;;;14.17;40.76;97457.81;1737736;82;21190;-87
2021/05/06 09:14:08;;;;;;;1.85;1.30;;;;;;;14.10;41.95;97459.48;1688871;82;21196;-85
2021/05/06 09:16:42;;;;;;;1.67;1.15;;;;;;;14.09;41.75;97458.22;1724328;82;21120;-76
2021/05/06 09:19:18;;;;;;;2.87;1.77;;;;;;;14.00;40.01;97459.58;1776736;80;21569;-82
2021/05/06 09:21:46;;;;;;;1.20;1.10;;;;;;;13.96;39.04;97461.52;1721657;80;68453;-81
2021/05/06 09:24:26;;;;;;;1.45;1.30;;;;;;;14.01;41.39;97465.29;1689572;85;22260;-82
2021/05/06 09:26:59;;;;;;;1.10;1.00;;;;;;;14.08;39.45;97465.34;1707334;83;21157;-80
2021/05/06 09:29:34;;;;;;;1.47;1.15;;;;;;;14.11;38.92;97466.53;1717094;83;21156;-81
2021/05/06 09:32:23;;;;;;;1.72;1.02;;;;;;;13.98;36.02;97461.44;1717169;83;21536;-81
2021/05/06 09:34:55;;;;;;;1.67;1.00;;;;;;;13.93;36.99;97464.36;1688146;85;21217;-80
2021/05/06 09:37:30;;;;;;;1.30;1.10;;;;;;;13.95;37.56;97449.63;1713680;83;21133;-82
2021/05/06 09:40:03;;;;;;;3.05;1.30;;;;;;;14.02;37.41;97467.00;1716982;83;22267;-81
2021/05/06 09:42:41;;;;;;;1.90;1.15;;;;;;;14.01;37.56;97471.08;1702427;83;21194;-81
2021/05/06 09:45:19;;;;;;;1.70;0.93;;;;;;;14.01;36.96;97472.41;1680049;84;21158;-81
2021/05/06 09:48:12;;;;;;;1.90;1.10;;;;;;;13.92;34.99;97481.75;1705651;83;21198;-79
2021/05/06 09:50:44;;;;;;;1.42;0.93;;;;;;;13.94;36.29;97466.08;1718040;82;21133;-81
2021/05/06 09:53:15;;;;;;;3.52;1.37;;;;;;;14.10;37.37;97466.14;1718038;83;21174;-80
2021/05/06 09:55:43;;;;;;;1.20;1.00;;;;;;;14.41;39.02;97464.95;1718035;83;21122;-79
2021/05/06 09:58:22;;;;;;;1.72;1.15;;;;;;;14.74;36.64;97459.23;1718225;83;21099;-79
2021/05/06 10:00:53;;;;;;;1.77;1.20;;;;;;;15.11;36.64;97462.52;1718605;83;21146;-81
2021/05/06 10:03:33;;;;;;;3.45;1.40;;;;;;;15.43;36.42;97461.16;1718408;83;21111;-79
2021/05/06 10:06:19;;;;;;;1.72;1.15;;;;;;;15.71;36.03;97446.66;1715608;83;21553;-79
2021/05/06 10:08:48;;;;;;;4.10;0.95;;;;;;;15.96;35.41;97449.22;1700908;82;21157;-80
2021/05/06 10:11:19;;;;;;;2.35;1.20;;;;;;;16.03;33.54;97446.55;1710544;83;21160;-79
2021/05/06 10:13:50;;;;;;;2.10;1.15;;;;;;;16.13;33.32;97445.98;1710261;83;21517;-77
2021/05/06 10:16:18;;;;;;;1.37;1.00;;;;;;;16.09;31.29;97445.32;1715257;83;21143;-81
2021/05/06 10:18:46;;;;;;;2.70;1.05;;;;;;;16.21;33.42;97443.25;1718224;83;21491;-82
2021/05/06 10:21:17;;;;;;;1.65;1.10;;;;;;;16.42;33.45;97441.53;1718347;82;21163;-82
2021/05/06 10:23:48;;;;;;;1.20;1.00;;;;;;;16.59;32.43;97442.27;1718102;83;21159;-82
2021/05/06 10:26:19;;;;;;;2.27;1.20;;;;;;;16.69;30.96;97450.59;1718048;83;21097;-81
2021/05/06 10:28:50;;;;;;;1.25;1.10;;;;;;;16.74;32.17;97444.47;1714777;83;21151;-81
2021/05/06 10:31:18;;;;;;;2.65;1.00;;;;;;;16.99;31.92;97438.37;1705588;83;22082;-81
2021/05/06 10:33:46;;;;;;;1.40;0.95;;;;;;;17.31;33.39;97443.11;1714860;83;21151;-78
2021/05/06 10:36:15;;;;;;;1.82;1.00;;;;;;;17.75;31.62;97432.56;1714827;83;21500;-79
2021/05/06 10:38:44;;;;;;;3.77;1.40;;;;;;;18.10;30.12;97419.55;1717802;83;21508;-83
2021/05/06 10:41:31;;;;;;;1.30;1.10;;;;;;;18.22;31.88;97435.27;1718349;83;21147;-81
2021/05/06 10:44:05;;;;;;;2.35;1.30;;;;;;;18.16;31.54;97440.09;1717665;83;21170;-82
2021/05/06 10:47:04;;;;;;;2.27;1.20;;;;;;;17.89;29.79;97420.88;1710961;83;21131;-83
2021/05/06 10:49:43;;;;;;;3.47;1.40;;;;;;;17.72;31.96;97418.02;1710596;83;21179;-79
2021/05/06 10:52:12;;;;;;;2.17;1.50;;;;;;;17.81;32.44;97421.41;1708895;84;21116;-80
2021/05/06 10:54:47;;;;;;;3.72;1.60;;;;;;;17.75;32.67;97430.35;1710102;84;21219;-80
2021/05/06 10:57:22;;;;;;;2.40;1.52;;;;;;;17.90;32.45;97427.95;1709571;83;21232;-82
2021/05/06 10:59:51;;;;;;;3.90;1.80;;;;;;;17.83;32.24;97417.77;1717958;83;21562;-80
2021/05/06 11:02:45;;;;;;;3.05;1.60;;;;;;;17.76;32.31;97439.63;1714775;83;21534;-82
2021/05/06 11:05:21;;;;;;;5.05;1.65;;;;;;;18.41;32.42;97434.81;1710182;83;21581;-84
2021/05/06 11:08:19;;;;;;;2.45;1.20;;;;;;;19.03;31.88;97434.90;1714401;83;21121;-81
2021/05/06 11:10:52;;;;;;;2.83;1.40;;;;;;;19.04;30.55;97437.52;1718321;83;21205;-80
2021/05/06 11:13:22;;;;;;;1.70;1.20;;;;;;;18.56;28.66;97439.59;1718400;83;21157;-83
2021/05/06 11:15:51;;;;;;;1.75;1.40;;;;;;;19.83;30.18;97442.00;1720398;82;21143;-82
2021/05/06 11:18:44;;;;;;;2.08;1.22;;;;;;;21.33;26.63;97441.95;1721220;83;21068;-81
2021/05/06 11:21:36;;;;;;;2.67;1.40;;;;;;;22.26;26.71;97439.56;1718015;83;21130;-80
2021/05/06 11:24:25;;;;;;;3.27;1.17;;;;;;;23.41;26.37;97428.63;1707865;83;21148;-81
2021/05/06 11:29:50;;;;;;;2.10;1.30;;;;;;;23.62;23.69;97418.69;1798631;79;28175;-81
2021/05/06 11:32:26;;;;;;;3.05;1.30;;;;;;;23.96;23.96;97424.48;1803927;78;21106;-81
2021/05/06 11:34:54;;;;;;;2.47;1.15;;;;;;;23.54;23.83;97418.89;1811805;78;21150;-77
2021/05/06 11:37:29;;;;;;;2.52;1.52;;;;;;;23.10;24.45;97427.36;1802682;78;21174;-80
2021/05/06 11:40:16;;;;;;;2.75;1.30;;;;;;;22.95;25.43;97425.53;1817489;78;21269;-81
2021/05/06 11:42:42;;;;;;;4.45;1.35;;;;;;;23.01;23.90;97424.13;1778161;78;21222;-81
2021/05/06 11:45:22;;;;;;;1.77;1.42;;;;;;;23.35;24.77;97430.55;1800362;78;21266;-81
2021/05/06 11:47:52;;;;;;;1.98;1.32;;;;;;;23.61;24.82;97419.17;1816093;78;21178;-81
2021/05/06 11:50:25;;;;;;;1.27;1.00;;;;;;;23.28;23.54;97432.93;1761197;81;21131;-80
2021/05/06 11:52:54;;;;;;;1.62;1.10;;;;;;;23.05;22.31;97429.11;1740501;81;21082;-82
2021/05/06 11:55:39;;;;;;;3.87;1.12;;;;;;;23.01;22.20;97426.35;1740443;82;21122;-80
2021/05/06 11:58:08;;;;;;;;;;;;;;;22.91;24.19;97426.79;1743339;81;21141;-81
2021/05/06 12:00:40;;;;;;;1.52;0.80;;;;;;;21.98;21.62;97434.35;1739067;82;20410;-78
2021/05/06 12:03:11;;;;;;;2.20;1.20;;;;;;;21.20;23.19;97438.07;1741757;81;21110;-79
2021/05/06 12:05:58;;;;;;;3.02;1.07;;;;;;;20.76;24.58;97440.70;1740297;81;21504;-77
2021/05/06 12:08:32;;;;;;;1.40;0.90;;;;;;;20.60;23.26;97452.70;1744585;81;21138;-78
2021/05/06 12:11:04;;;;;;;1.42;1.00;;;;;;;19.98;23.41;97450.77;1750598;81;21110;-74
2021/05/06 12:13:36;;;;;;;1.32;0.90;;;;;;;19.44;24.75;97440.89;1756028;81;21123;-76
2021/05/06 12:16:23;;;;;;;2.50;1.10;;;;;;;19.14;25.74;97440.36;1764168;81;21111;-78
2021/05/06 12:19:20;;;;;;;2.90;1.60;;;;;;;19.29;27.10;97445.09;1770848;81;21157;-77
2021/05/06 12:21:52;;;;;;;2.92;1.12;;;;;;;19.45;26.96;97447.50;1685781;85;21174;-80
2021/05/06 12:24:33;;;;;;;1.75;1.35;;;;;;;19.41;26.70;97449.17;1673115;84;21638;-76
2021/05/06 12:27:22;;;;;;;1.67;1.12;;;;;;;19.67;27.53;97436.97;1677838;85;21114;-77
2021/05/06 12:29:54;;;;;;;1.57;0.82;;;;;;;20.05;26.85;97438.07;1669543;85;21352;-77
2021/05/06 12:32:27;;;;;;;4.60;2.45;;;;;;;20.17;26.95;97436.27;1672317;85;21143;-80
2021/05/06 12:34:57;;;;;;;2.80;0.93;;;;;;;19.71;25.53;97437.08;1676260;85;21191;-78
2021/05/06 12:37:33;;;;;;;3.05;1.40;;;;;;;19.70;25.58;97438.05;1659741;86;21163;-78
2021/05/06 12:40:04;;;;;;;1.27;0.70;;;;;;;19.52;25.49;97420.52;1654158;86;21683;-79
2021/05/06 12:42:37;;;;;;;2.62;1.00;;;;;;;19.53;26.65;97432.98;1660547;86;21138;-81
2021/05/06 12:45:19;;;;;;;0.70;0.70;;;;;;;19.54;27.02;97437.88;1660320;86;21177;-79
2021/05/06 12:47:52;;;;;;;3.58;0.90;;;;;;;19.39;26.66;97438.56;1659220;86;21190;-79
2021/05/06 12:50:25;;;;;;;3.20;1.00;;;;;;;19.47;28.15;97439.33;1659994;86;21677;-80
2021/05/06 12:53:00;;;;;;;2.47;0.90;;;;;;;19.22;25.82;97451.41;1660024;86;21653;-80
2021/05/06 12:55:32;;;;;;;2.58;0.80;;;;;;;19.20;25.95;97452.48;1659389;86;21543;-80
2021/05/06 12:58:26;;;;;;;2.00;0.80;;;;;;;19.02;26.30;97458.70;1659979;86;21167;-80
2021/05/06 13:01:00;;;;;;;1.98;0.80;;;;;;;18.73;27.58;97447.77;1654527;86;21607;-80
2021/05/06 13:06:18;;;;;;;1.80;1.00;;;;;;;18.57;28.82;97454.72;1802253;79;28027;-72
2021/05/06 13:08:47;;;;;;;1.20;0.80;;;;;;;18.64;29.03;97444.41;1787770;80;21670;-73
2021/05/06 13:11:21;;;;;;;2.45;1.20;;;;;;;18.58;29.29;97449.72;1788432;80;21114;-73
2021/05/06 13:13:52;;;;;;;2.50;0.90;;;;;;;18.46;27.80;97454.13;1788556;80;21487;-73
2021/05/06 13:16:45;;;;;;;1.37;0.70;;;;;;;18.29;27.98;97446.80;1753265;80;21180;-73
2021/05/06 13:19:19;;;;;;;2.05;0.90;;;;;;;18.13;28.08;97445.66;1750708;82;21464;-73
2021/05/06 13:21:51;;;;;;;1.45;0.80;;;;;;;18.07;28.20;97444.25;1757608;81;21115;-73
2021/05/06 13:24:21;;;;;;;1.77;0.93;;;;;;;18.09;28.74;97445.99;1757933;82;21141;-73
2021/05/06 13:26:49;;;;;;;1.40;1.00;;;;;;;18.06;28.80;97447.87;1740274;81;21114;-74
2021/05/06 13:29:21;;;;;;;3.15;1.12;;;;;;;18.00;28.64;97452.33;1737731;82;21131;-73
2021/05/06 13:31:51;;;;;;;32.73;20.30;;;;;;;17.66;28.80;97449.27;1726966;82;21127;-75
2021/05/06 13:34:26;;;;;;;3.08;1.77;;;;;;;17.61;29.35;97466.97;1681992;83;21147;-80
2021/05/06 13:37:03;;;;;;;3.25;1.07;;;;;;;17.47;29.12;97468.38;1695766;84;21113;-80
2021/05/06 13:39:33;;;;;;;2.50;1.05;;;;;;;17.30;29.44;97473.53;1706810;84;21125;-81
2021/05/06 13:42:01;;;;;;;3.25;1.80;;;;;;;17.19;30.00;97464.85;1706600;84;21162;-81
2021/05/06 13:44:30;;;;;;;6.47;3.40;;;;;;;17.05;29.91;97458.57;1698469;84;21193;-81
2021/05/06 13:47:02;;;;;;;2.85;1.10;;;;;;;16.93;29.86;97461.53;1692180;85;21182;-90
2021/05/06 13:49:32;;;;;;;1.45;0.90;;;;;;;16.85;29.75;97463.36;1655365;85;21163;-83
2021/05/06 13:52:04;;;;;;;3.50;0.75;;;;;;;16.72;29.39;97461.95;1677776;85;21504;-83
2021/05/06 13:54:32;;;;;;;3.65;0.90;;;;;;;16.62;29.69;97456.30;1678810;85;21122;-83
2021/05/06 13:56:59;;;;;;;4.15;1.00;;;;;;;16.56;29.72;97461.20;1678847;85;21552;-84
2021/05/06 13:59:27;;;;;;;2.27;1.00;;;;;;;16.57;30.99;97461.58;1679771;85;21150;-82
2021/05/06 14:01:56;;;;;;;1.62;1.25;;;;;;;16.55;30.81;97462.14;1682478;85;21495;-82
2021/05/06 14:04:25;;;;;;;1.40;0.65;;;;;;;16.54;32.42;97463.97;1681245;85;21480;-89
2021/05/06 14:06:53;;;;;;;1.90;1.10;;;;;;;16.55;31.39;97461.67;1704745;82;21107;-90
2021/05/06 14:09:21;;;;;;;1.98;1.00;;;;;;;16.47;32.11;97462.16;1727865;82;21146;-84
2021/05/06 14:11:51;;;;;;;5.33;0.90;;;;;;;16.50;31.14;97455.75;1730188;82;21202;-86
2021/05/06 14:14:20;;;;;;;2.42;0.90;;;;;;;16.47;31.67;97457.27;1724054;82;21127;-85
2021/05/06 14:16:48;;;;;;;1.12;0.70;;;;;;;16.38;31.35;97458.71;1721810;82;21545;-87
2021/05/06 14:19:15;;;;;;;1.10;0.70;;;;;;;16.45;31.72;97448.50;1729922;82;21568;-85
2021/05/06 14:21:47;;;;;;;0.95;0.85;;;;;;;16.55;32.80;97446.09;1725074;82;21171;-86
2021/05/06 14:24:15;;;;;;;1.87;0.62;;;;;;;16.60;32.71;97449.33;1728261;82;21178;-88
2021/05/06 14:26:47;;;;;;;1.05;0.57;;;;;;;16.69;31.04;97450.09;1725163;82;21167;-87
2021/05/06 14:29:16;;;;;;;3.25;1.87;;;;;;;16.58;31.05;97444.10;1726850;82;21119;-84
2021/05/06 14:31:44;;;;;;;2.90;1.02;;;;;;;16.46;30.56;97447.53;1723415;82;21130;-88
2021/05/06 14:34:12;;;;;;;3.42;1.02;;;;;;;16.39;30.50;97447.05;1732356;82;21122;-86
2021/05/06 14:36:42;;;;;;;3.50;1.20;;;;;;;16.26;31.82;97448.30;1732511;82;21162;-86
2021/05/06 14:39:12;;;;;;;1.77;0.93;;;;;;;16.21;32.41;97441.04;1724477;82;21166;-84
2021/05/06 14:41:42;;;;;;;1.45;1.00;;;;;;;16.26;32.89;97440.73;1727284;82;21162;-86
2021/05/06 14:44:10;;;;;;;2.35;1.10;;;;;;;16.31;32.57;97445.33;1718271;82;21258;-86
2021/05/06 14:46:39;;;;;;;2.58;0.95;;;;;;;16.23;32.42;97444.46;1727069;82;22249;-87
2021/05/06 14:49:07;;;;;;;1.85;1.10;;;;;;;16.16;32.83;97448.02;1724827;82;21120;-85
2021/05/06 14:51:35;;;;;;;1.50;1.00;;;;;;;16.16;33.35;97452.03;1725917;82;21154;-87
2021/05/06 14:54:03;;;;;;;2.00;1.10;;;;;;;16.12;33.45;97454.97;1727182;82;21174;-84
2021/05/06 14:56:31;;;;;;;2.92;1.50;;;;;;;16.07;32.63;97453.42;1716981;82;21490;-86
2021/05/06 14:58:58;;;;;;;2.30;1.10;;;;;;;16.08;33.03;97445.78;1673901;86;21182;-89
2021/05/06 15:01:26;;;;;;;2.02;1.20;;;;;;;16.09;32.08;97440.84;1738631;82;21198;-82
2021/05/06 15:03:53;;;;;;;2.15;1.47;;;;;;;16.10;32.66;97444.36;1694202;84;21124;-89
2021/05/06 15:06:21;;;;;;;2.55;1.67;;;;;;;16.02;35.35;97450.67;1741513;82;21137;-88
2021/05/06 15:08:49;;;;;;;8.48;1.35;;;;;;;15.97;33.94;97452.27;1743394;82;21580;-86
2021/05/06 15:11:17;;;;;;;2.65;1.12;;;;;;;15.93;34.32;97457.38;1735871;81;21126;-86
2021/05/06 15:13:44;;;;;;;2.05;1.02;;;;;;;15.77;33.27;97459.64;1734143;82;21178;-84
2021/05/06 15:16:12;;;;;;;2.42;1.00;;;;;;;15.75;33.28;97471.37;1737047;82;21111;-86
2021/05/06 15:18:40;;;;;;;4.45;0.72;;;;;;;15.71;33.62;97463.52;1726302;81;21536;-86
2021/05/06 15:21:08;;;;;;;4.10;1.00;;;;;;;15.62;32.55;97460.55;1736747;82;21147;-84